sensor_id;sensor_type;location;lat;lon;timestamp;pressure;altitude;pressure_sealevel;temperature;humidity
3122;BME280;1571;52.524;14.104;2023-04-15T00:01:16;100247.97;;;7.72;100.00
3122;BME280;1571;52.524;14.104;2023-04-15T00:03:45;100244.16;;;7.62;100.00
3122;BME280;1571;52.524;14.104;2023-04-15T00:06:14;100250.66;;;7.57;100.00
3122;BME280;1571;52.524;14.104;2023-04-15T00:08:43;100258.13;;;7.64;100.00
3122;BME280;1571;52.524;14.104;2023-04-15T00:11:11;100250.78;;;7.69;100.00
3122;BME280;1571;52.524;14.104;2023-04-15T00:13:40;100248.91;;;7.71;100.00
3122;BME280;1571;52.524;14.104;2023-04-15T00:16:09;100243.22;;;7.63;100.00
3122;BME280;1571;52.524;14.104;2023-04-15T00:18:39;100234.75;;;7.72;100.00
3122;BME280;1571;52.524;14.104;2023-04-15T00:21:08;100233.41;;;7.65;100.00
3122;BME280;1571;52.524;14.104;2023-04-15T00:23:36;100240.31;;;7.68;100.00
3122;BME280;1571;52.524;14.104;2023-04-15T00:26:04;100243.22;;;7.63;100.00
3122;BME280;1571;52.524;14.104;2023-04-15T00:28:33;100237.84;;;7.65;100.00
3122;BME280;1571;52.524;14.104;2023-04-15T00:31:02;100237.19;;;7.61;100.00
3122;BME280;1571;52.524;14.104;2023-04-15T00:33:30;100246.59;;;7.65;100.00
3122;BME280;1571;52.524;14.104;2023-04-15T00:36:00;100246.25;;;7.71;100.00
3122;BME280;1571;52.524;14.104;2023-04-15T00:38:28;100244.03;;;7.80;100.00
3122;BME280;1571;52.524;14.104;2023-04-15T00:40:57;100230.69;;;7.67;100.00
3122;BME280;1571;52.524;14.104;2023-04-15T00:43:26;100243.06;;;7.81;100.00
3122;BME280;1571;52.524;14.104;2023-04-15T00:45:55;100232.22;;;7.85;100.00
3122;BME280;1571;52.524;14.104;2023-04-15T00:48:26;100217.88;;;7.75;100.00
3122;BME280;1571;52.524;14.104;2023-04-15T00:50:54;100221.78;;;7.84;100.00
3122;BME280;1571;52.524;14.104;2023-04-15T00:53:24;100213.28;;;7.93;100.00
3122;BME280;1571;52.524;14.104;2023-04-15T00:55:52;100216.84;;;7.78;100.00
3122;BME280;1571;52.524;14.104;2023-04-15T00:58:21;100206.75;;;7.84;100.00
3122;BME280;1571;52.524;14.104;2023-04-15T01:00:49;100199.88;;;7.82;100.00
3122;BME280;1571;52.524;14.104;2023-04-15T01:03:20;100196.53;;;7.78;100.00
3122;BME280;1571;52.524;14.104;2023-04-15T01:05:49;100197.72;;;7.88;100.00
3122;BME280;1571;52.524;14.104;2023-04-15T01:08:18;100195.16;;;7.87;100.00
3122;BME280;1571;52.524;14.104;2023-04-15T01:10:48;100198.28;;;7.93;100.00
3122;BME280;1571;52.524;14.104;2023-04-15T01:13:16;100185.75;;;7.97;100.00
3122;BME280;1571;52.524;14.104;2023-04-15T01:15:44;100179.97;;;7.90;100.00
3122;BME280;1571;52.524;14.104;2023-04-15T01:18:13;100186.47;;;7.85;100.00
3122;BME280;1571;52.524;14.104;2023-04-15T01:20:41;100179.28;;;7.87;100.00
3122;BME280;1571;52.524;14.104;2023-04-15T01:23:09;100176.63;;;7.72;100.00
3122;BME280;1571;52.524;14.104;2023-04-15T01:25:39;100181.09;;;7.86;100.00
3122;BME280;1571;52.524;14.104;2023-04-15T01:28:09;100177.78;;;7.83;100.00
3122;BME280;1571;52.524;14.104;2023-04-15T01:30:37;100181.66;;;7.91;100.00
3122;BME280;1571;52.524;14.104;2023-04-15T01:33:05;100182.69;;;7.89;100.00
3122;BME280;1571;52.524;14.104;2023-04-15T01:35:33;100182.50;;;7.92;100.00
3122;BME280;1571;52.524;14.104;2023-04-15T01:38:05;100180.44;;;7.97;100.00
3122;BME280;1571;52.524;14.104;2023-04-15T01:40:33;100184.56;;;7.87;100.00
3122;BME280;1571;52.524;14.104;2023-04-15T01:43:03;100173.25;;;7.99;100.00
3122;BME280;1571;52.524;14.104;2023-04-15T01:45:32;100171.38;;;7.87;100.00
3122;BME280;1571;52.524;14.104;2023-04-15T01:48:03;100176.50;;;8.04;100.00
3122;BME280;1571;52.524;14.104;2023-04-15T01:50:31;100170.81;;;8.10;100.00
3122;BME280;1571;52.524;14.104;2023-04-15T01:53:00;100158.75;;;8.06;100.00
3122;BME280;1571;52.524;14.104;2023-04-15T01:55:28;100167.13;;;7.99;100.00
3122;BME280;1571;52.524;14.104;2023-04-15T01:57:56;100160.78;;;8.01;100.00
3122;BME280;1571;52.524;14.104;2023-04-15T02:00:26;100157.78;;;8.07;100.00
3122;BME280;1571;52.524;14.104;2023-04-15T02:02:54;100154.69;;;8.15;100.00
3122;BME280;1571;52.524;14.104;2023-04-15T02:05:24;100159.09;;;8.00;100.00
3122;BME280;1571;52.524;14.104;2023-04-15T02:07:53;100152.50;;;7.93;100.00
3122;BME280;1571;52.524;14.104;2023-04-15T02:10:21;100151.94;;;8.02;100.00
3122;BME280;1571;52.524;14.104;2023-04-15T02:12:50;100149.66;;;7.96;100.00
3122;BME280;1571;52.524;14.104;2023-04-15T02:15:18;100158.44;;;7.97;100.00
3122;BME280;1571;52.524;14.104;2023-04-15T02:17:50;100156.81;;;7.80;100.00
3122;BME280;1571;52.524;14.104;2023-04-15T02:20:21;100156.84;;;8.08;100.00
3122;BME280;1571;52.524;14.104;2023-04-15T02:22:49;100158.91;;;8.03;100.00
3122;BME280;1571;52.524;14.104;2023-04-15T02:25:18;100171.84;;;8.08;100.00
3122;BME280;1571;52.524;14.104;2023-04-15T02:27:47;100162.88;;;7.96;100.00
3122;BME280;1571;52.524;14.104;2023-04-15T02:30:16;100165.72;;;8.07;100.00
3122;BME280;1571;52.524;14.104;2023-04-15T02:32:44;100171.00;;;7.93;100.00
3122;BME280;1571;52.524;14.104;2023-04-15T02:35:14;100179.50;;;7.98;100.00
3122;BME280;1571;52.524;14.104;2023-04-15T02:37:45;100182.91;;;8.14;100.00
3122;BME280;1571;52.524;14.104;2023-04-15T02:40:13;100185.75;;;7.97;100.00
3122;BME280;1571;52.524;14.104;2023-04-15T02:42:41;100183.28;;;8.08;100.00
3122;BME280;1571;52.524;14.104;2023-04-15T02:45:12;100186.03;;;8.07;100.00
3122;BME280;1571;52.524;14.104;2023-04-15T02:47:41;100190.63;;;8.03;100.00
3122;BME280;1571;52.524;14.104;2023-04-15T02:50:11;100196.03;;;8.02;100.00
3122;BME280;1571;52.524;14.104;2023-04-15T02:52:43;100191.66;;;8.01;100.00
3122;BME280;1571;52.524;14.104;2023-04-15T02:55:11;100192.72;;;8.12;100.00
3122;BME280;1571;52.524;14.104;2023-04-15T02:57:40;100197.72;;;8.17;100.00
3122;BME280;1571;52.524;14.104;2023-04-15T03:00:10;100193.38;;;8.02;100.00
3122;BME280;1571;52.524;14.104;2023-04-15T03:02:41;100196.13;;;8.00;100.00
3122;BME280;1571;52.524;14.104;2023-04-15T03:05:11;100191.75;;;7.99;100.00
3122;BME280;1571;52.524;14.104;2023-04-15T03:07:47;100194.59;;;7.96;100.00
3122;BME280;1571;52.524;14.104;2023-04-15T03:10:16;100191.66;;;8.01;100.00
3122;BME280;1571;52.524;14.104;2023-04-15T03:12:45;100199.69;;;7.99;100.00
3122;BME280;1571;52.524;14.104;2023-04-15T03:15:17;100200.72;;;7.97;100.00
3122;BME280;1571;52.524;14.104;2023-04-15T03:17:49;100205.44;;;8.06;100.00
3122;BME280;1571;52.524;14.104;2023-04-15T03:20:17;100207.81;;;8.10;100.00
3122;BME280;1571;52.524;14.104;2023-04-15T03:22:48;100207.81;;;8.10;100.00
3122;BME280;1571;52.524;14.104;2023-04-15T03:25:18;100215.03;;;8.08;100.00
3122;BME280;1571;52.524;14.104;2023-04-15T03:27:47;100208.22;;;8.04;100.00
3122;BME280;1571;52.524;14.104;2023-04-15T03:30:16;100218.66;;;8.06;100.00
3122;BME280;1571;52.524;14.104;2023-04-15T03:32:45;100217.06;;;8.03;100.00
3122;BME280;1571;52.524;14.104;2023-04-15T03:35:13;100221.22;;;8.22;100.00
3122;BME280;1571;52.524;14.104;2023-04-15T03:37:42;100211.06;;;8.16;100.00
3122;BME280;1571;52.524;14.104;2023-04-15T03:40:12;100212.28;;;8.39;100.00
3122;BME280;1571;52.524;14.104;2023-04-15T03:42:40;100202.09;;;8.18;100.00
3122;BME280;1571;52.524;14.104;2023-04-15T03:45:09;100195.66;;;8.22;100.00
3122;BME280;1571;52.524;14.104;2023-04-15T03:47:37;100205.94;;;8.12;100.00
3122;BME280;1571;52.524;14.104;2023-04-15T03:50:06;100191.22;;;8.08;100.00
3122;BME280;1571;52.524;14.104;2023-04-15T03:52:35;100197.72;;;8.17;100.00
3122;BME280;1571;52.524;14.104;2023-04-15T03:55:04;100204.16;;;8.13;100.00
3122;BME280;1571;52.524;14.104;2023-04-15T03:57:34;100201.03;;;8.21;100.00
3122;BME280;1571;52.524;14.104;2023-04-15T04:00:05;100196.13;;;8.29;100.00
3122;BME280;1571;52.524;14.104;2023-04-15T04:02:37;100186.59;;;8.26;100.00
3122;BME280;1571;52.524;14.104;2023-04-15T04:05:06;100192.16;;;8.22;100.00
3122;BME280;1571;52.524;14.104;2023-04-15T04:07:35;100183.66;;;8.02;100.00
3122;BME280;1571;52.524;14.104;2023-04-15T04:10:04;100188.81;;;7.89;100.00
3122;BME280;1571;52.524;14.104;2023-04-15T04:12:33;100191.78;;;8.13;100.00
3122;BME280;1571;52.524;14.104;2023-04-15T04:15:02;100196.31;;;8.26;100.00
3122;BME280;1571;52.524;14.104;2023-04-15T04:17:30;100191.41;;;8.20;100.00
3122;BME280;1571;52.524;14.104;2023-04-15T04:19:59;100180.66;;;8.08;100.00
3122;BME280;1571;52.524;14.104;2023-04-15T04:22:27;100177.59;;;8.14;100.00
3122;BME280;1571;52.524;14.104;2023-04-15T04:24:55;100181.38;;;8.10;100.00
3122;BME280;1571;52.524;14.104;2023-04-15T04:27:25;100188.19;;;8.14;100.00
3122;BME280;1571;52.524;14.104;2023-04-15T04:29:54;100176.97;;;8.25;100.00
3122;BME280;1571;52.524;14.104;2023-04-15T04:32:22;100171.00;;;8.22;100.00
3122;BME280;1571;52.524;14.104;2023-04-15T04:34:51;100160.41;;;8.22;100.00
3122;BME280;1571;52.524;14.104;2023-04-15T04:37:19;100155.69;;;8.12;100.00
3122;BME280;1571;52.524;14.104;2023-04-15T04:39:47;100161.16;;;8.24;100.00
3122;BME280;1571;52.524;14.104;2023-04-15T04:42:15;100154.59;;;8.31;100.00
3122;BME280;1571;52.524;14.104;2023-04-15T04:44:43;100150.59;;;8.38;100.00
3122;BME280;1571;52.524;14.104;2023-04-15T04:47:13;100143.88;;;8.32;100.00
3122;BME280;1571;52.524;14.104;2023-04-15T04:49:41;100132.66;;;8.29;100.00
3122;BME280;1571;52.524;14.104;2023-04-15T04:52:10;100132.47;;;8.32;100.00
3122;BME280;1571;52.524;14.104;2023-04-15T04:54:38;100128.47;;;8.39;100.00
3122;BME280;1571;52.524;14.104;2023-04-15T04:57:06;100125.19;;;8.36;100.00
3122;BME280;1571;52.524;14.104;2023-04-15T04:59:35;100119.25;;;8.46;100.00
3122;BME280;1571;52.524;14.104;2023-04-15T05:02:04;100114.72;;;8.34;100.00
3122;BME280;1571;52.524;14.104;2023-04-15T05:04:34;100118.88;;;8.52;100.00
3122;BME280;1571;52.524;14.104;2023-04-15T05:07:03;100111.22;;;8.48;100.00
3122;BME280;1571;52.524;14.104;2023-04-15T05:09:31;100107.53;;;8.50;100.00
3122;BME280;1571;52.524;14.104;2023-04-15T05:12:02;100107.34;;;8.53;100.00
3122;BME280;1571;52.524;14.104;2023-04-15T05:14:30;100108.28;;;8.52;100.00
3122;BME280;1571;52.524;14.104;2023-04-15T05:16:59;100106.47;;;8.39;100.00
3122;BME280;1571;52.524;14.104;2023-04-15T05:19:27;100100.25;;;8.54;100.00
3122;BME280;1571;52.524;14.104;2023-04-15T05:21:56;100090.31;;;8.58;100.00
3122;BME280;1571;52.524;14.104;2023-04-15T05:24:25;100092.03;;;8.59;100.00
3122;BME280;1571;52.524;14.104;2023-04-15T05:26:53;100089.16;;;8.62;100.00
3122;BME280;1571;52.524;14.104;2023-04-15T05:29:22;100079.38;;;8.49;100.00
3122;BME280;1571;52.524;14.104;2023-04-15T05:31:50;100088.88;;;8.66;100.00
3122;BME280;1571;52.524;14.104;2023-04-15T05:34:18;100088.16;;;8.77;100.00
3122;BME280;1571;52.524;14.104;2023-04-15T05:36:46;100082.50;;;8.56;100.00
3122;BME280;1571;52.524;14.104;2023-04-15T05:39:16;100074.69;;;8.67;100.00
3122;BME280;1571;52.524;14.104;2023-04-15T05:41:44;100079.72;;;8.58;100.00
3122;BME280;1571;52.524;14.104;2023-04-15T05:44:12;100079.19;;;8.52;100.00
3122;BME280;1571;52.524;14.104;2023-04-15T05:46:40;100088.63;;;8.57;100.00
3122;BME280;1571;52.524;14.104;2023-04-15T05:49:09;100094.06;;;8.68;100.00
3122;BME280;1571;52.524;14.104;2023-04-15T05:51:37;100101.41;;;8.77;100.00
3122;BME280;1571;52.524;14.104;2023-04-15T05:54:06;100096.63;;;8.69;100.00
3122;BME280;1571;52.524;14.104;2023-04-15T05:56:35;100099.16;;;8.71;100.00
3122;BME280;1571;52.524;14.104;2023-04-15T05:59:03;100099.88;;;8.87;100.00
3122;BME280;1571;52.524;14.104;2023-04-15T06:01:32;100093.31;;;8.66;100.00
3122;BME280;1571;52.524;14.104;2023-04-15T06:04:01;100097.22;;;8.87;100.00
3122;BME280;1571;52.524;14.104;2023-04-15T06:06:29;100092.72;;;8.75;100.00
3122;BME280;1571;52.524;14.104;2023-04-15T06:08:58;100094.31;;;8.78;100.00
3122;BME280;1571;52.524;14.104;2023-04-15T06:11:26;100091.03;;;8.74;100.00
3122;BME280;1571;52.524;14.104;2023-04-15T06:13:56;100101.94;;;8.82;100.00
3122;BME280;1571;52.524;14.104;2023-04-15T06:16:24;100099.72;;;8.76;100.00
3122;BME280;1571;52.524;14.104;2023-04-15T06:18:53;100109.88;;;8.82;100.00
3122;BME280;1571;52.524;14.104;2023-04-15T06:21:21;100099.91;;;8.73;100.00
3122;BME280;1571;52.524;14.104;2023-04-15T06:23:49;100105.84;;;8.77;100.00
3122;BME280;1571;52.524;14.104;2023-04-15T06:26:17;100107.84;;;8.73;100.00
3122;BME280;1571;52.524;14.104;2023-04-15T06:28:46;100113.84;;;8.89;100.00
3122;BME280;1571;52.524;14.104;2023-04-15T06:31:15;100116.91;;;8.83;100.00
3122;BME280;1571;52.524;14.104;2023-04-15T06:33:43;100125.16;;;8.91;100.00
3122;BME280;1571;52.524;14.104;2023-04-15T06:36:11;100123.41;;;8.78;100.00
3122;BME280;1571;52.524;14.104;2023-04-15T06:38:40;100118.69;;;8.83;100.00
3122;BME280;1571;52.524;14.104;2023-04-15T06:41:08;100126.38;;;8.73;100.00
3122;BME280;1571;52.524;14.104;2023-04-15T06:43:36;100128.09;;;8.74;100.00
3122;BME280;1571;52.524;14.104;2023-04-15T06:46:05;100136.78;;;8.76;100.00
3122;BME280;1571;52.524;14.104;2023-04-15T06:48:34;100140.25;;;8.77;100.00
3122;BME280;1571;52.524;14.104;2023-04-15T06:51:03;100147.75;;;8.70;100.00
3122;BME280;1571;52.524;14.104;2023-04-15T06:53:31;100146.78;;;8.71;100.00
3122;BME280;1571;52.524;14.104;2023-04-15T06:55:59;100152.78;;;8.60;100.00
3122;BME280;1571;52.524;14.104;2023-04-15T06:58:27;100143.50;;;8.67;100.00
3122;BME280;1571;52.524;14.104;2023-04-15T07:00:56;100156.22;;;8.75;100.00
3122;BME280;1571;52.524;14.104;2023-04-15T07:03:24;100151.16;;;8.72;100.00
3122;BME280;1571;52.524;14.104;2023-04-15T07:05:54;100151.75;;;8.63;100.00
3122;BME280;1571;52.524;14.104;2023-04-15T07:08:22;100163.16;;;8.63;100.00
3122;BME280;1571;52.524;14.104;2023-04-15T07:10:51;100168.25;;;8.66;100.00
3122;BME280;1571;52.524;14.104;2023-04-15T07:13:20;100164.50;;;8.56;100.00
3122;BME280;1571;52.524;14.104;2023-04-15T07:15:48;100172.69;;;8.66;100.00
3122;BME280;1571;52.524;14.104;2023-04-15T07:18:16;100169.69;;;8.58;100.00
3122;BME280;1571;52.524;14.104;2023-04-15T07:20:44;100174.78;;;8.61;100.00
3122;BME280;1571;52.524;14.104;2023-04-15T07:23:14;100171.84;;;8.65;100.00
3122;BME280;1571;52.524;14.104;2023-04-15T07:25:42;100164.75;;;8.66;100.00
3122;BME280;1571;52.524;14.104;2023-04-15T07:28:10;100176.47;;;8.62;100.00
3122;BME280;1571;52.524;14.104;2023-04-15T07:30:38;100181.38;;;8.68;100.00
3122;BME280;1571;52.524;14.104;2023-04-15T07:33:07;100179.88;;;8.64;100.00
3122;BME280;1571;52.524;14.104;2023-04-15T07:35:35;100181.00;;;8.74;100.00
3122;BME280;1571;52.524;14.104;2023-04-15T07:38:04;100186.13;;;8.63;100.00
3122;BME280;1571;52.524;14.104;2023-04-15T07:40:34;100187.44;;;8.70;100.00
3122;BME280;1571;52.524;14.104;2023-04-15T07:43:02;100190.09;;;8.70;100.00
3122;BME280;1571;52.524;14.104;2023-04-15T07:45:30;100199.34;;;8.77;100.00
3122;BME280;1571;52.524;14.104;2023-04-15T07:47:58;100193.50;;;8.72;100.00
3122;BME280;1571;52.524;14.104;2023-04-15T07:50:27;100192.53;;;8.73;100.00
3122;BME280;1571;52.524;14.104;2023-04-15T07:52:56;100194.72;;;8.66;100.00
3122;BME280;1571;52.524;14.104;2023-04-15T07:55:24;100192.91;;;8.81;100.00
3122;BME280;1571;52.524;14.104;2023-04-15T07:57:55;100203.78;;;8.77;100.00
3122;BME280;1571;52.524;14.104;2023-04-15T08:00:23;100205.00;;;8.71;100.00
3122;BME280;1571;52.524;14.104;2023-04-15T08:02:52;100209.00;;;8.78;100.00
3122;BME280;1571;52.524;14.104;2023-04-15T08:05:23;100201.81;;;8.66;100.00
3122;BME280;1571;52.524;14.104;2023-04-15T08:07:51;100214.84;;;8.69;100.00
3122;BME280;1571;52.524;14.104;2023-04-15T08:10:20;100217.84;;;8.77;100.00
3122;BME280;1571;52.524;14.104;2023-04-15T08:12:48;100216.34;;;8.87;100.00
3122;BME280;1571;52.524;14.104;2023-04-15T08:15:21;100222.94;;;8.94;100.00
3122;BME280;1571;52.524;14.104;2023-04-15T08:17:49;100219.94;;;8.72;100.00
3122;BME280;1571;52.524;14.104;2023-04-15T08:20:18;100221.25;;;8.79;100.00
3122;BME280;1571;52.524;14.104;2023-04-15T08:22:46;100218.69;;;8.78;100.00
3122;BME280;1571;52.524;14.104;2023-04-15T08:25:18;100223.69;;;8.82;100.00
3122;BME280;1571;52.524;14.104;2023-04-15T08:27:47;100236.94;;;8.82;100.00
3122;BME280;1571;52.524;14.104;2023-04-15T08:30:15;100237.13;;;8.79;100.00
3122;BME280;1571;52.524;14.104;2023-04-15T08:32:45;100224.88;;;8.78;100.00
3122;BME280;1571;52.524;14.104;2023-04-15T08:35:14;100236.34;;;8.91;100.00
3122;BME280;1571;52.524;14.104;2023-04-15T08:37:42;100234.75;;;8.89;100.00
3122;BME280;1571;52.524;14.104;2023-04-15T08:40:11;100241.19;;;8.85;100.00
3122;BME280;1571;52.524;14.104;2023-04-15T08:42:42;100234.13;;;8.85;100.00
3122;BME280;1571;52.524;14.104;2023-04-15T08:45:11;100237.41;;;8.89;100.00
3122;BME280;1571;52.524;14.104;2023-04-15T08:47:41;100243.44;;;8.91;100.00
3122;BME280;1571;52.524;14.104;2023-04-15T08:50:13;100251.00;;;8.97;100.00
3122;BME280;1571;52.524;14.104;2023-04-15T08:52:42;100247.78;;;9.06;100.00
3122;BME280;1571;52.524;14.104;2023-04-15T08:55:10;100261.09;;;9.19;100.00
3122;BME280;1571;52.524;14.104;2023-04-15T08:57:40;100247.56;;;9.09;100.00
3122;BME280;1571;52.524;14.104;2023-04-15T09:00:09;100258.44;;;9.05;100.00
3122;BME280;1571;52.524;14.104;2023-04-15T09:02:38;100259.31;;;9.05;100.00
3122;BME280;1571;52.524;14.104;2023-04-15T09:05:07;100254.50;;;8.98;100.00
3122;BME280;1571;52.524;14.104;2023-04-15T09:07:37;100257.16;;;8.98;100.00
3122;BME280;1571;52.524;14.104;2023-04-15T09:10:06;100263.75;;;9.05;100.00
3122;BME280;1571;52.524;14.104;2023-04-15T09:12:35;100264.34;;;8.95;100.00
3122;BME280;1571;52.524;14.104;2023-04-15T09:15:04;100258.75;;;9.00;100.00
3122;BME280;1571;52.524;14.104;2023-04-15T09:17:32;100269.03;;;9.05;100.00
3122;BME280;1571;52.524;14.104;2023-04-15T09:20:09;100269.72;;;9.08;100.00
3122;BME280;1571;52.524;14.104;2023-04-15T09:22:40;100260.94;;;9.08;100.00
3122;BME280;1571;52.524;14.104;2023-04-15T09:25:25;100275.69;;;9.12;100.00
3122;BME280;1571;52.524;14.104;2023-04-15T09:27:55;100277.56;;;9.10;100.00
3122;BME280;1571;52.524;14.104;2023-04-15T09:30:24;100283.63;;;8.98;100.00
3122;BME280;1571;52.524;14.104;2023-04-15T09:32:54;100271.59;;;9.06;100.00
3122;BME280;1571;52.524;14.104;2023-04-15T09:35:23;100272.91;;;9.13;100.00
3122;BME280;1571;52.524;14.104;2023-04-15T09:38:01;100283.63;;;9.12;100.00
3122;BME280;1571;52.524;14.104;2023-04-15T09:40:30;100288.72;;;9.15;100.00
3122;BME280;1571;52.524;14.104;2023-04-15T09:42:59;100285.84;;;9.18;100.00
3122;BME280;1571;52.524;14.104;2023-04-15T09:45:28;100299.00;;;9.20;100.00
3122;BME280;1571;52.524;14.104;2023-04-15T09:47:56;100300.34;;;9.12;100.00
3122;BME280;1571;52.524;14.104;2023-04-15T09:50:26;100297.88;;;9.09;100.00
3122;BME280;1571;52.524;14.104;2023-04-15T09:52:56;100302.78;;;9.15;100.00
3122;BME280;1571;52.524;14.104;2023-04-15T09:55:25;100308.09;;;9.15;100.00
3122;BME280;1571;52.524;14.104;2023-04-15T09:57:53;100303.84;;;9.13;100.00
3122;BME280;1571;52.524;14.104;2023-04-15T10:00:21;100319.72;;;9.13;100.00
3122;BME280;1571;52.524;14.104;2023-04-15T10:02:50;100314.63;;;9.10;100.00
3122;BME280;1571;52.524;14.104;2023-04-15T10:05:19;100311.59;;;9.16;100.00
3122;BME280;1571;52.524;14.104;2023-04-15T10:07:49;100317.28;;;9.10;100.00
3122;BME280;1571;52.524;14.104;2023-04-15T10:10:19;100321.34;;;9.15;100.00
3122;BME280;1571;52.524;14.104;2023-04-15T10:12:48;100318.97;;;9.11;100.00
3122;BME280;1571;52.524;14.104;2023-04-15T10:15:17;100321.25;;;9.17;100.00
3122;BME280;1571;52.524;14.104;2023-04-15T10:17:46;100323.13;;;9.15;100.00
3122;BME280;1571;52.524;14.104;2023-04-15T10:20:18;100335.03;;;9.22;100.00
3122;BME280;1571;52.524;14.104;2023-04-15T10:22:47;100342.59;;;9.28;100.00
3122;BME280;1571;52.524;14.104;2023-04-15T10:25:15;100339.97;;;9.28;100.00
3122;BME280;1571;52.524;14.104;2023-04-15T10:27:45;100335.78;;;9.24;100.00
3122;BME280;1571;52.524;14.104;2023-04-15T10:30:15;100336.56;;;9.26;100.00
3122;BME280;1571;52.524;14.104;2023-04-15T10:32:44;100337.00;;;9.33;100.00
3122;BME280;1571;52.524;14.104;2023-04-15T10:35:13;100342.41;;;9.31;100.00
3122;BME280;1571;52.524;14.104;2023-04-15T10:37:42;100340.88;;;9.27;100.00
3122;BME280;1571;52.524;14.104;2023-04-15T10:40:23;100346.94;;;9.29;100.00
3122;BME280;1571;52.524;14.104;2023-04-15T10:42:55;100349.72;;;9.28;100.00
3122;BME280;1571;52.524;14.104;2023-04-15T10:45:25;100364.16;;;9.36;100.00
3122;BME280;1571;52.524;14.104;2023-04-15T10:47:55;100354.13;;;9.42;100.00
3122;BME280;1571;52.524;14.104;2023-04-15T10:50:27;100360.19;;;9.44;100.00
3122;BME280;1571;52.524;14.104;2023-04-15T10:52:56;100358.47;;;9.43;100.00
3122;BME280;1571;52.524;14.104;2023-04-15T10:55:25;100353.38;;;9.40;100.00
3122;BME280;1571;52.524;14.104;2023-04-15T10:57:58;100360.47;;;9.25;100.00
3122;BME280;1571;52.524;14.104;2023-04-15T11:00:28;100363.03;;;9.26;100.00
3122;BME280;1571;52.524;14.104;2023-04-15T11:02:58;100363.13;;;9.25;100.00
3122;BME280;1571;52.524;14.104;2023-04-15T11:05:51;100379.13;;;9.23;100.00
3122;BME280;1571;52.524;14.104;2023-04-15T11:08:52;100386.69;;;9.29;100.00
3122;BME280;1571;52.524;14.104;2023-04-15T11:11:20;100387.44;;;9.31;100.00
3122;BME280;1571;52.524;14.104;2023-04-15T11:13:50;100387.25;;;9.34;100.00
3122;BME280;1571;52.524;14.104;2023-04-15T11:16:20;100388.94;;;9.35;100.00
3122;BME280;1571;52.524;14.104;2023-04-15T11:18:53;100397.84;;;9.34;100.00
3122;BME280;1571;52.524;14.104;2023-04-15T11:21:23;100397.84;;;9.34;100.00
3122;BME280;1571;52.524;14.104;2023-04-15T11:23:52;100400.69;;;9.46;100.00
3122;BME280;1571;52.524;14.104;2023-04-15T11:26:25;100412.59;;;9.38;100.00
3122;BME280;1571;52.524;14.104;2023-04-15T11:28:55;100416.00;;;9.41;100.00
3122;BME280;1571;52.524;14.104;2023-04-15T11:31:27;100412.50;;;9.40;100.00
3122;BME280;1571;52.524;14.104;2023-04-15T11:33:57;100414.31;;;9.40;100.00
3122;BME280;1571;52.524;14.104;2023-04-15T11:36:27;100414.19;;;9.41;100.00
3122;BME280;1571;52.524;14.104;2023-04-15T11:38:57;100421.28;;;9.41;100.00
3122;BME280;1571;52.524;14.104;2023-04-15T11:41:25;100417.44;;;9.46;100.00
3122;BME280;1571;52.524;14.104;2023-04-15T11:43:55;100412.59;;;9.53;100.00
3122;BME280;1571;52.524;14.104;2023-04-15T11:46:28;100417.44;;;9.46;100.00
3122;BME280;1571;52.524;14.104;2023-04-15T11:48:57;100415.59;;;9.61;100.00
3122;BME280;1571;52.524;14.104;2023-04-15T11:51:31;100420.72;;;9.64;100.00
3122;BME280;1571;52.524;14.104;2023-04-15T11:53:59;100417.84;;;9.67;100.00
3122;BME280;1571;52.524;14.104;2023-04-15T11:56:28;100416.34;;;9.63;100.00
3122;BME280;1571;52.524;14.104;2023-04-15T11:58:58;100419.00;;;9.63;100.00
3122;BME280;1571;52.524;14.104;2023-04-15T12:01:32;100414.75;;;9.61;100.00
3122;BME280;1571;52.524;14.104;2023-04-15T12:04:01;100412.56;;;9.67;100.00
3122;BME280;1571;52.524;14.104;2023-04-15T12:06:31;100415.28;;;9.80;100.00
3122;BME280;1571;52.524;14.104;2023-04-15T12:09:06;100421.78;;;9.89;100.00
3122;BME280;1571;52.524;14.104;2023-04-15T12:11:40;100420.06;;;10.02;100.00
3122;BME280;1571;52.524;14.104;2023-04-15T12:14:12;100409.63;;;9.99;100.00
3122;BME280;1571;52.524;14.104;2023-04-15T12:16:44;100405.75;;;9.90;100.00
3122;BME280;1571;52.524;14.104;2023-04-15T12:19:18;100402.22;;;10.04;100.00
3122;BME280;1571;52.524;14.104;2023-04-15T12:21:49;100407.72;;;10.01;100.00
3122;BME280;1571;52.524;14.104;2023-04-15T12:24:20;100409.00;;;10.08;100.00
3122;BME280;1571;52.524;14.104;2023-04-15T12:26:50;100404.31;;;9.99;100.00
3122;BME280;1571;52.524;14.104;2023-04-15T12:29:26;100403.69;;;9.95;100.00
3122;BME280;1571;52.524;14.104;2023-04-15T12:31:56;100410.31;;;9.88;100.00
3122;BME280;1571;52.524;14.104;2023-04-15T12:34:26;100405.13;;;9.87;100.00
3122;BME280;1571;52.524;14.104;2023-04-15T12:36:56;100408.56;;;10.01;100.00
3122;BME280;1571;52.524;14.104;2023-04-15T12:39:28;100410.91;;;10.06;100.00
3122;BME280;1571;52.524;14.104;2023-04-15T12:41:57;100410.47;;;9.99;100.00
3122;BME280;1571;52.524;14.104;2023-04-15T12:44:27;100406.28;;;10.10;100.00
3122;BME280;1571;52.524;14.104;2023-04-15T12:46:56;100409.00;;;10.08;100.00
3122;BME280;1571;52.524;14.104;2023-04-15T12:49:25;100415.88;;;9.98;100.00
3122;BME280;1571;52.524;14.104;2023-04-15T12:51:55;100414.94;;;9.99;100.00
3122;BME280;1571;52.524;14.104;2023-04-15T12:54:23;100415.88;;;9.98;100.00
3122;BME280;1571;52.524;14.104;2023-04-15T12:56:51;100426.44;;;10.12;100.00
3122;BME280;1571;52.524;14.104;2023-04-15T12:59:20;100424.38;;;10.03;100.00
3122;BME280;1571;52.524;14.104;2023-04-15T13:01:51;100436.66;;;10.18;100.00
3122;BME280;1571;52.524;14.104;2023-04-15T13:04:21;100428.19;;;9.99;100.00
3122;BME280;1571;52.524;14.104;2023-04-15T13:06:49;100425.34;;;10.02;100.00
3122;BME280;1571;52.524;14.104;2023-04-15T13:09:17;100436.19;;;10.12;100.00
3122;BME280;1571;52.524;14.104;2023-04-15T13:11:45;100441.06;;;10.05;100.00